createdAt,value
2018-09-06T00:01:03.424Z,10.00
2018-09-06T00:03:35.133Z,9.33
2018-09-06T00:06:03.358Z,9.70
2018-09-06T00:08:31.735Z,9.08
2018-09-06T00:10:59.361Z,8.75
2018-09-06T00:13:36.861Z,9.15
2018-09-06T00:18:31.631Z,9.28
2018-09-06T00:20:59.782Z,9.28
2018-09-06T00:23:28.664Z,9.85
2018-09-06T00:25:57.200Z,10.48
2018-09-06T00:28:24.754Z,8.20
2018-09-06T00:30:56.734Z,9.43
2018-09-06T00:33:24.127Z,9.38
2018-09-06T00:35:51.503Z,10.13
2018-09-06T00:38:18.871Z,9.13
2018-09-06T00:40:46.270Z,9.15
2018-09-06T00:43:13.605Z,10.03
2018-09-06T00:45:40.950Z,10.20
2018-09-06T00:48:12.445Z,9.65
2018-09-06T00:50:40.808Z,9.43
2018-09-06T00:53:12.739Z,9.15
2018-09-06T00:55:40.494Z,9.20
2018-09-06T00:58:12.620Z,10.40
2018-09-06T01:00:40.902Z,9.95
2018-09-06T01:03:09.181Z,9.50
2018-09-06T01:05:36.644Z,10.08
2018-09-06T01:08:04.186Z,9.15
2018-09-06T01:10:31.810Z,9.43
2018-09-06T01:12:59.450Z,9.20
2018-09-06T01:15:26.802Z,9.33
2018-09-06T01:17:54.263Z,9.48
2018-09-06T01:20:21.718Z,9.80
2018-09-06T01:22:49.890Z,9.80
2018-09-06T01:25:17.352Z,10.28
2018-09-06T01:27:44.961Z,10.00
2018-09-06T01:30:12.346Z,9.70
2018-09-06T01:32:39.920Z,10.53
2018-09-06T01:35:07.260Z,9.40
2018-09-06T01:37:35.115Z,9.80
2018-09-06T01:40:02.813Z,8.40
2018-09-06T01:42:31.730Z,11.00
2018-09-06T01:45:04.268Z,9.65
2018-09-06T01:47:36.927Z,10.25
2018-09-06T01:50:04.288Z,10.88
2018-09-06T01:52:36.202Z,11.57
2018-09-06T01:55:03.663Z,11.08
2018-09-06T01:57:31.042Z,10.28
2018-09-06T01:59:58.481Z,11.00
2018-09-06T02:02:26.388Z,11.57
2018-09-06T02:04:55.641Z,11.65
2018-09-06T02:07:22.974Z,11.08
2018-09-06T02:09:55.253Z,10.72
2018-09-06T02:12:27.499Z,10.63
2018-09-06T02:14:55.186Z,10.03
2018-09-06T02:17:23.199Z,11.43
2018-09-06T02:19:53.963Z,10.35
2018-09-06T02:22:21.337Z,11.30
2018-09-06T02:25:01.790Z,10.85
2018-09-06T02:27:29.183Z,10.58
2018-09-06T02:29:57.776Z,11.50
2018-09-06T02:32:25.715Z,12.37
2018-09-06T02:34:53.987Z,11.00
2018-09-06T02:37:23.182Z,11.43
2018-09-06T02:42:18.483Z,11.55
2018-09-06T02:44:46.002Z,11.83
2018-09-06T02:47:13.359Z,12.23
2018-09-06T02:49:46.183Z,10.95
2018-09-06T02:52:17.809Z,10.90
2018-09-06T02:54:45.242Z,11.95
2018-09-06T02:57:12.779Z,10.80
2018-09-06T02:59:40.124Z,10.93
2018-09-06T03:02:07.503Z,12.23
2018-09-06T03:04:34.957Z,11.15
2018-09-06T03:07:11.458Z,11.18
2018-09-06T03:09:41.706Z,10.20
2018-09-06T03:12:14.200Z,10.72
2018-09-06T03:14:46.544Z,12.20
2018-09-06T03:17:19.521Z,10.75
2018-09-06T03:19:48.404Z,11.00
2018-09-06T03:22:16.567Z,10.93
2018-09-06T03:24:47.901Z,9.85
2018-09-06T03:27:20.135Z,10.78
2018-09-06T03:29:47.537Z,11.15
2018-09-06T03:32:14.878Z,11.25
2018-09-06T03:34:42.253Z,9.85
2018-09-06T03:37:09.998Z,10.98
2018-09-06T03:39:39.466Z,10.58
2018-09-06T03:42:07.190Z,11.10
2018-09-06T03:44:34.583Z,11.22
2018-09-06T03:47:02.178Z,10.38
2018-09-06T03:49:29.822Z,10.85
2018-09-06T03:51:58.076Z,11.55
2018-09-06T03:54:29.590Z,12.15
2018-09-06T03:56:57.015Z,10.72
2018-09-06T03:59:24.859Z,11.50
2018-09-06T04:01:52.570Z,10.75
2018-09-06T04:04:24.767Z,11.68
2018-09-06T04:06:52.823Z,12.28
2018-09-06T04:09:28.566Z,11.60
2018-09-06T04:11:55.934Z,12.40
2018-09-06T04:14:23.460Z,12.60
2018-09-06T04:16:50.816Z,10.95
2018-09-06T04:19:18.189Z,11.12
2018-09-06T04:21:45.621Z,12.33
2018-09-06T04:24:15.029Z,11.53
2018-09-06T04:26:43.299Z,11.75
2018-09-06T04:29:10.976Z,10.80
2018-09-06T04:31:38.434Z,12.13
2018-09-06T04:34:05.934Z,10.20
2018-09-06T04:36:33.298Z,12.00
2018-09-06T04:39:01.330Z,10.98
2018-09-06T04:41:28.731Z,11.60
2018-09-06T04:43:57.261Z,10.50
2018-09-06T04:46:24.541Z,11.33
2018-09-06T04:48:52.117Z,11.20
2018-09-06T04:51:37.830Z,12.75
2018-09-06T04:54:05.618Z,9.93
2018-09-06T04:56:37.084Z,11.75
2018-09-06T04:59:06.142Z,12.93
2018-09-06T05:01:38.070Z,11.97
2018-09-06T05:04:07.042Z,12.45
2018-09-06T05:06:34.442Z,11.53
2018-09-06T05:09:01.828Z,12.40
2018-09-06T05:11:34.798Z,14.23
2018-09-06T05:14:02.946Z,12.95
2018-09-06T05:16:31.921Z,12.30
2018-09-06T05:18:59.198Z,12.75
2018-09-06T05:21:27.624Z,12.50
2018-09-06T05:23:54.940Z,13.10
2018-09-06T05:26:22.278Z,14.43
2018-09-06T05:29:11.217Z,12.95
2018-09-06T05:31:38.532Z,13.10
2018-09-06T05:34:06.108Z,13.30
2018-09-06T05:36:33.447Z,14.45
2018-09-06T05:39:00.741Z,13.35
2018-09-06T05:41:28.052Z,13.85
2018-09-06T05:43:55.343Z,13.53
2018-09-06T05:46:22.727Z,15.30
2018-09-06T05:48:50.214Z,14.95
2018-09-06T05:51:17.508Z,15.35
2018-09-06T05:53:44.817Z,13.90
2018-09-06T05:56:12.088Z,14.63
2018-09-06T05:58:39.548Z,14.90
2018-09-06T06:01:06.841Z,13.60
2018-09-06T06:03:34.779Z,14.60
2018-09-06T06:06:02.128Z,14.30
2018-09-06T06:08:35.014Z,13.93
2018-09-06T06:11:02.323Z,16.10
2018-09-06T06:13:29.655Z,12.82
2018-09-06T06:15:56.939Z,15.10
2018-09-06T06:18:24.284Z,14.03
2018-09-06T06:20:51.633Z,14.28
2018-09-06T06:23:18.944Z,16.60
2018-09-06T06:25:46.378Z,16.15
2018-09-06T06:28:13.656Z,14.80
2018-09-06T06:30:40.979Z,16.42
2018-09-06T06:33:08.265Z,16.55
2018-09-06T06:35:35.549Z,16.65
2018-09-06T06:38:02.856Z,14.05
2018-09-06T06:40:30.159Z,14.03
2018-09-06T06:42:57.474Z,15.23
2018-09-06T06:45:24.796Z,13.93
2018-09-06T06:47:52.124Z,13.93
2018-09-06T06:50:19.517Z,13.63
2018-09-06T06:52:46.822Z,14.27
2018-09-06T06:55:14.456Z,13.33
2018-09-06T06:57:41.801Z,14.27
2018-09-06T07:00:09.102Z,13.90
2018-09-06T07:02:36.392Z,13.30
2018-09-06T07:05:03.712Z,13.03
2018-09-06T07:07:30.995Z,13.23
2018-09-06T07:09:58.341Z,12.87
2018-09-06T07:12:25.622Z,12.60
2018-09-06T07:14:52.901Z,12.40
2018-09-06T07:17:20.158Z,12.97
2018-09-06T07:19:47.519Z,13.13
2018-09-06T07:22:14.849Z,14.47
2018-09-06T07:24:42.438Z,12.63
2018-09-06T07:27:09.722Z,13.13
2018-09-06T07:29:37.084Z,13.57
2018-09-06T07:32:04.371Z,12.93
2018-09-06T07:34:31.654Z,12.60
2018-09-06T07:36:58.944Z,13.40
2018-09-06T07:39:26.174Z,13.37
2018-09-06T07:41:53.454Z,14.70
2018-09-06T07:44:20.766Z,13.30
2018-09-06T07:46:48.081Z,13.07
2018-09-06T07:49:15.349Z,11.80
2018-09-06T07:51:42.639Z,13.63
2018-09-06T07:54:09.926Z,14.53
2018-09-06T07:56:37.205Z,12.57
2018-09-06T07:59:04.486Z,12.23
2018-09-06T08:01:31.841Z,13.53
2018-09-06T08:03:59.127Z,12.90
2018-09-06T08:06:26.385Z,13.37
2018-09-06T08:08:53.694Z,12.97
2018-09-06T08:11:21.379Z,13.03
2018-09-06T08:13:48.746Z,12.37
2018-09-06T08:16:16.081Z,12.07
2018-09-06T08:18:43.440Z,12.47
2018-09-06T08:21:10.747Z,12.63
2018-09-06T08:23:38.102Z,13.20
2018-09-06T08:26:05.531Z,11.93
2018-09-06T08:28:32.806Z,11.50
2018-09-06T08:31:00.240Z,13.47
2018-09-06T08:33:27.372Z,12.80
2018-09-06T08:35:54.625Z,13.93
2018-09-06T08:38:22.174Z,12.60
2018-09-06T08:40:49.433Z,11.30
2018-09-06T08:43:16.708Z,13.63
2018-09-06T08:45:44.041Z,11.00
2018-09-06T08:48:11.356Z,12.77
2018-09-06T08:50:38.676Z,11.27
2018-09-06T08:53:05.963Z,11.63
2018-09-06T08:55:33.226Z,11.30
2018-09-06T08:58:00.496Z,11.23
2018-09-06T09:00:27.773Z,10.43
2018-09-06T09:02:55.214Z,10.40
2018-09-06T09:05:22.408Z,10.90
2018-09-06T09:07:49.771Z,11.00
2018-09-06T09:10:17.103Z,10.90
2018-09-06T09:12:44.520Z,9.73
2018-09-06T09:15:11.808Z,11.40
2018-09-06T09:17:39.134Z,11.20
2018-09-06T09:20:06.473Z,10.83
2018-09-06T09:22:33.754Z,10.70
2018-09-06T09:25:01.099Z,10.17
2018-09-06T09:27:28.490Z,10.10
2018-09-06T09:29:55.843Z,11.10
2018-09-06T09:32:23.160Z,11.10
2018-09-06T09:34:50.477Z,12.60
2018-09-06T09:37:17.765Z,11.17
2018-09-06T09:39:45.063Z,12.57
2018-09-06T09:42:12.369Z,11.93
2018-09-06T09:44:39.641Z,13.23
2018-09-06T09:49:33.562Z,12.30
2018-09-06T09:52:00.882Z,12.60
2018-09-06T09:54:28.400Z,12.03
2018-09-06T09:56:55.701Z,12.53
2018-09-06T09:59:22.946Z,12.23
2018-09-06T10:01:55.785Z,12.67
2018-09-06T10:04:28.795Z,12.87
2018-09-06T10:07:01.607Z,10.50
2018-09-06T10:09:29.096Z,12.23
2018-09-06T10:11:56.405Z,11.87
2018-09-06T10:14:23.720Z,11.90
2018-09-06T10:16:51.051Z,12.10
2018-09-06T10:19:18.411Z,12.33
2018-09-06T10:21:45.742Z,13.37
2018-09-06T10:24:13.026Z,12.70
2018-09-06T10:26:40.354Z,12.53
2018-09-06T10:29:08.029Z,12.50
2018-09-06T10:31:35.610Z,11.83
2018-09-06T10:34:02.939Z,11.70
2018-09-06T10:36:30.224Z,11.77
2018-09-06T10:38:57.640Z,12.57
2018-09-06T10:41:25.252Z,11.30
2018-09-06T10:43:52.652Z,11.63
2018-09-06T10:46:20.043Z,13.17
2018-09-06T10:48:47.348Z,10.90
2018-09-06T10:53:45.978Z,10.97
2018-09-06T10:56:13.729Z,10.67
2018-09-06T10:58:41.255Z,10.73
2018-09-06T11:01:14.345Z,10.43
2018-09-06T11:03:41.658Z,11.10
2018-09-06T11:06:08.986Z,10.60
2018-09-06T11:08:36.284Z,10.53
2018-09-06T11:11:03.592Z,11.63
2018-09-06T11:13:30.934Z,12.27
2018-09-06T11:15:58.307Z,12.00
2018-09-06T11:18:25.613Z,10.80
2018-09-06T11:20:52.962Z,9.10
2018-09-06T11:23:20.330Z,7.80
2018-09-06T11:25:47.754Z,7.10
2018-09-06T11:28:15.022Z,6.47
2018-09-06T11:30:42.351Z,8.97
2018-09-06T11:33:09.894Z,7.58
2018-09-06T11:35:37.583Z,6.90
2018-09-06T11:38:04.915Z,7.10
2018-09-06T11:40:32.317Z,7.43
2018-09-06T11:42:59.635Z,6.63
2018-09-06T11:45:26.980Z,5.53
2018-09-06T11:47:54.334Z,5.43
2018-09-06T11:50:21.655Z,6.77
2018-09-06T11:52:49.154Z,6.45
2018-09-06T11:55:16.450Z,6.17
2018-09-06T11:57:43.689Z,6.93
2018-09-06T12:00:11.647Z,6.50
2018-09-06T12:02:39.263Z,5.33
2018-09-06T12:05:06.559Z,5.33
2018-09-06T12:07:33.839Z,5.33
2018-09-06T12:10:01.175Z,5.47
2018-09-06T12:12:28.461Z,6.50
2018-09-06T12:14:55.707Z,6.10
2018-09-06T12:17:23.018Z,5.13
2018-09-06T12:19:50.325Z,5.37
2018-09-06T12:22:17.629Z,5.00
2018-09-06T12:24:44.963Z,5.47
2018-09-06T12:27:12.717Z,4.57
2018-09-06T12:29:40.273Z,5.60
2018-09-06T12:32:07.663Z,6.00
2018-09-06T12:34:34.954Z,4.50
2018-09-06T12:37:02.398Z,5.10
2018-09-06T12:39:29.737Z,5.03
2018-09-06T12:41:57.152Z,5.80
2018-09-06T12:44:24.486Z,5.28
2018-09-06T12:46:51.777Z,5.13
2018-09-06T12:49:19.094Z,5.90
2018-09-06T12:51:46.387Z,5.87
2018-09-06T12:54:13.705Z,5.70
2018-09-06T12:56:41.299Z,5.70
2018-09-06T12:59:08.555Z,5.63
2018-09-06T13:01:35.875Z,5.90
2018-09-06T13:04:03.202Z,4.80
2018-09-06T13:06:30.583Z,5.50
2018-09-06T13:08:57.931Z,5.10
2018-09-06T13:11:25.359Z,4.50
2018-09-06T13:13:52.693Z,5.10
2018-09-06T13:16:20.030Z,5.03
2018-09-06T13:18:47.494Z,5.37
2018-09-06T13:21:14.741Z,5.50
2018-09-06T13:23:42.073Z,5.08
2018-09-06T13:26:09.412Z,4.70
2018-09-06T13:28:36.758Z,5.47
2018-09-06T13:31:04.090Z,4.80
2018-09-06T13:33:31.442Z,5.27
2018-09-06T13:35:58.752Z,4.90
2018-09-06T13:38:26.948Z,5.53
2018-09-06T13:40:54.245Z,4.80
2018-09-06T13:43:21.548Z,6.03
2018-09-06T13:45:49.025Z,6.47
2018-09-06T13:48:16.654Z,5.53
2018-09-06T13:50:44.066Z,5.60
2018-09-06T13:53:11.413Z,6.67
2018-09-06T13:55:38.786Z,6.00
2018-09-06T13:58:06.055Z,5.83
2018-09-06T14:00:33.346Z,6.90
2018-09-06T14:03:01.314Z,6.13
2018-09-06T14:05:28.817Z,7.05
2018-09-06T14:07:56.227Z,7.70
2018-09-06T14:10:23.566Z,7.40
2018-09-06T14:12:50.892Z,6.23
2018-09-06T14:15:18.196Z,7.03
2018-09-06T14:17:45.578Z,7.40
2018-09-06T14:20:12.898Z,6.53
2018-09-06T14:22:40.173Z,7.40
2018-09-06T14:25:07.498Z,7.03
2018-09-06T14:27:34.931Z,6.93
2018-09-06T14:30:02.317Z,6.90
2018-09-06T14:32:29.748Z,7.60
2018-09-06T14:34:57.096Z,7.17
2018-09-06T14:37:25.009Z,7.60
2018-09-06T14:39:52.479Z,8.03
2018-09-06T14:42:19.771Z,7.17
2018-09-06T14:44:47.130Z,7.27
2018-09-06T14:47:14.423Z,6.63
2018-09-06T14:49:41.751Z,7.20
2018-09-06T14:52:09.029Z,7.55
2018-09-06T14:54:36.321Z,6.60
2018-09-06T14:57:03.655Z,8.50
2018-09-06T14:59:31.200Z,7.17
2018-09-06T15:01:58.550Z,7.93
2018-09-06T15:04:25.968Z,7.83
2018-09-06T15:06:53.498Z,9.00
2018-09-06T15:09:20.786Z,8.37
2018-09-06T15:11:48.107Z,7.60
2018-09-06T15:14:15.391Z,8.67
2018-09-06T15:16:43.521Z,8.27
2018-09-06T15:19:10.902Z,7.67
2018-09-06T15:21:38.213Z,9.10
2018-09-06T15:24:05.688Z,7.33
2018-09-06T15:26:33.002Z,9.00
2018-09-06T15:29:00.281Z,9.30
2018-09-06T15:31:27.963Z,9.28
2018-09-06T15:33:55.570Z,7.90
2018-09-06T15:36:22.869Z,8.83
2018-09-06T15:38:50.219Z,8.60
2018-09-06T15:41:17.546Z,8.30
2018-09-06T15:43:44.894Z,8.18
2018-09-06T15:46:12.230Z,8.13
2018-09-06T15:48:39.516Z,8.40
2018-09-06T15:51:06.835Z,8.43
2018-09-06T15:53:34.168Z,8.60
2018-09-06T15:56:01.443Z,8.80
2018-09-06T15:58:28.774Z,8.83
2018-09-06T16:00:56.130Z,8.97
2018-09-06T16:03:23.412Z,10.00
2018-09-06T16:05:50.682Z,9.85
2018-09-06T16:08:17.983Z,11.05
2018-09-06T16:10:45.331Z,12.00
2018-09-06T16:13:12.621Z,11.55
2018-09-06T16:15:40.019Z,10.70
2018-09-06T16:18:07.562Z,12.90
2018-09-06T16:20:34.926Z,13.33
2018-09-06T16:23:02.295Z,13.90
2018-09-06T16:25:29.589Z,15.57
2018-09-06T16:27:56.894Z,15.10
2018-09-06T16:30:24.233Z,14.90
2018-09-06T16:32:51.548Z,14.80
2018-09-06T16:35:18.867Z,15.60
2018-09-06T16:37:46.138Z,16.77
2018-09-06T16:40:13.472Z,14.47
2018-09-06T16:42:40.851Z,14.43
2018-09-06T16:45:08.069Z,14.27
2018-09-06T16:47:35.357Z,16.23
2018-09-06T16:50:02.707Z,16.37
2018-09-06T16:52:30.104Z,17.50
2018-09-06T16:54:57.390Z,18.00
2018-09-06T16:57:24.758Z,17.57
2018-09-06T16:59:52.126Z,17.75
2018-09-06T17:02:19.463Z,18.80
2018-09-06T17:04:46.878Z,18.77
2018-09-06T17:07:14.269Z,18.20
2018-09-06T17:09:41.571Z,18.07
2018-09-06T17:12:08.880Z,17.98
2018-09-06T17:14:36.394Z,15.60
2018-09-06T17:17:04.490Z,16.00
2018-09-06T17:19:32.619Z,14.50
2018-09-06T17:22:00.033Z,14.50
2018-09-06T17:24:27.410Z,12.00
2018-09-06T17:26:59.298Z,13.50
2018-09-06T17:29:26.656Z,12.07
2018-09-06T17:31:54.326Z,14.43
2018-09-06T17:34:21.692Z,13.80
2018-09-06T17:36:51.199Z,11.63
2018-09-06T17:39:18.672Z,11.23
2018-09-06T17:41:46.716Z,12.23
2018-09-06T17:44:14.057Z,12.80
2018-09-06T17:46:42.105Z,12.70
2018-09-06T17:49:14.054Z,12.97
2018-09-06T17:51:41.407Z,11.13
2018-09-06T17:54:09.287Z,13.70
2018-09-06T17:56:38.287Z,13.43
2018-09-06T17:59:06.678Z,14.90
2018-09-06T18:01:40.657Z,15.07
2018-09-06T18:04:08.583Z,15.30
2018-09-06T18:06:35.948Z,13.83
2018-09-06T18:09:04.897Z,14.33
2018-09-06T18:11:33.201Z,14.20
2018-09-06T18:14:01.009Z,13.80
2018-09-06T18:16:28.710Z,14.70
2018-09-06T18:18:56.710Z,15.80
2018-09-06T18:21:25.261Z,14.95
2018-09-06T18:23:53.412Z,15.70
2018-09-06T18:26:21.734Z,15.55
2018-09-06T18:28:49.124Z,14.60
2018-09-06T18:31:17.006Z,15.87
2018-09-06T18:33:44.752Z,17.77
2018-09-06T18:36:12.176Z,17.67
2018-09-06T18:38:44.573Z,17.15
2018-09-06T18:41:11.930Z,16.75
2018-09-06T18:43:39.486Z,18.07
2018-09-06T18:46:07.125Z,19.20
2018-09-06T18:48:34.481Z,18.73
2018-09-06T18:51:06.133Z,18.07
2018-09-06T18:53:34.521Z,19.20
2018-09-06T18:56:02.612Z,19.55
2018-09-06T18:58:30.307Z,18.65
2018-09-06T19:00:58.338Z,21.55
2018-09-06T19:03:30.395Z,20.27
2018-09-06T19:05:58.622Z,20.10
2018-09-06T19:08:26.567Z,19.77
2018-09-06T19:10:53.880Z,22.20
2018-09-06T19:13:21.262Z,22.07
2018-09-06T19:15:48.625Z,23.27
2018-09-06T19:18:16.052Z,23.40
2018-09-06T19:20:43.364Z,25.20
2018-09-06T19:23:11.398Z,24.52
2018-09-06T19:25:38.757Z,23.45
2018-09-06T19:28:06.155Z,24.25
2018-09-06T19:30:33.583Z,21.03
2018-09-06T19:33:00.992Z,23.70
2018-09-06T19:35:28.308Z,25.90
2018-09-06T19:37:55.963Z,25.32
2018-09-06T19:40:23.315Z,29.00
2018-09-06T19:42:50.677Z,29.50
2018-09-06T19:45:18.046Z,32.30
2018-09-06T19:47:45.448Z,32.70
2018-09-06T19:50:12.771Z,32.10
2018-09-06T19:52:40.097Z,30.77
2018-09-06T19:55:07.779Z,30.90
2018-09-06T19:57:35.971Z,33.67
2018-09-06T20:00:03.696Z,36.07
2018-09-06T20:02:31.102Z,37.38
2018-09-06T20:04:58.436Z,41.37
2018-09-06T20:07:26.808Z,45.10
2018-09-06T20:09:54.764Z,46.28
2018-09-06T20:12:22.195Z,45.20
2018-09-06T20:14:50.118Z,43.92
2018-09-06T20:17:17.872Z,41.18
2018-09-06T20:19:45.199Z,44.87
2018-09-06T20:22:12.595Z,45.40
2018-09-06T20:24:40.681Z,46.30
2018-09-06T20:27:08.027Z,47.50
2018-09-06T20:29:35.381Z,49.70
2018-09-06T20:32:03.498Z,52.07
2018-09-06T20:34:35.023Z,49.57
2018-09-06T20:37:03.205Z,45.00
2018-09-06T20:39:30.621Z,51.68
2018-09-06T20:41:59.010Z,52.10
2018-09-06T20:44:26.930Z,50.50
2018-09-06T20:46:54.328Z,50.98
2018-09-06T20:49:21.795Z,51.17
2018-09-06T20:51:53.541Z,47.50
2018-09-06T20:54:21.390Z,48.70
2018-09-06T20:56:48.795Z,47.27
2018-09-06T20:59:16.170Z,47.00
2018-09-06T21:01:43.451Z,46.02
2018-09-06T21:04:10.874Z,45.52
2018-09-06T21:06:38.682Z,44.05
2018-09-06T21:09:06.910Z,44.20
2018-09-06T21:11:34.334Z,40.20
2018-09-06T21:14:01.682Z,42.27
2018-09-06T21:16:29.087Z,41.53
2018-09-06T21:18:56.337Z,41.33
2018-09-06T21:21:24.030Z,42.90
2018-09-06T21:23:51.973Z,39.18
2018-09-06T21:26:19.388Z,37.90
2018-09-06T21:28:46.743Z,39.20
2018-09-06T21:31:14.053Z,35.65
2018-09-06T21:33:41.322Z,36.83
2018-09-06T21:36:08.600Z,26.70
2018-09-06T21:38:35.940Z,22.45
2018-09-06T21:41:03.851Z,16.07
2018-09-06T21:43:32.228Z,14.60
2018-09-06T21:45:59.569Z,16.07
2018-09-06T21:48:26.937Z,15.40
2018-09-06T21:50:54.342Z,12.53
2018-09-06T21:53:21.698Z,11.80
2018-09-06T21:55:49.258Z,11.65
2018-09-06T21:58:16.540Z,11.57
2018-09-06T22:00:44.767Z,13.65
2018-09-06T22:03:17.427Z,12.28
2018-09-06T22:05:44.836Z,12.60
2018-09-06T22:08:12.174Z,11.22
2018-09-06T22:10:39.862Z,13.18
2018-09-06T22:13:07.215Z,12.73
2018-09-06T22:15:34.503Z,12.10
2018-09-06T22:18:01.824Z,13.70
2018-09-06T22:20:29.171Z,12.88
2018-09-06T22:22:56.507Z,12.78
2018-09-06T22:25:23.835Z,14.13
2018-09-06T22:27:51.183Z,13.00
2018-09-06T22:30:18.527Z,14.18
2018-09-06T22:32:45.942Z,13.78
2018-09-06T22:35:13.297Z,12.85
2018-09-06T22:37:40.609Z,12.45
2018-09-06T22:40:07.906Z,15.08
2018-09-06T22:42:35.343Z,14.25
2018-09-06T22:45:02.715Z,13.43
2018-09-06T22:47:31.178Z,13.43
2018-09-06T22:49:58.627Z,14.25
2018-09-06T22:52:26.187Z,13.32
2018-09-06T22:54:53.618Z,14.65
2018-09-06T22:57:20.982Z,13.40
2018-09-06T22:59:48.305Z,15.05
2018-09-06T23:02:15.593Z,13.70
2018-09-06T23:04:43.533Z,14.78
2018-09-06T23:07:10.819Z,12.55
2018-09-06T23:09:38.117Z,12.23
2018-09-06T23:12:05.497Z,12.60
2018-09-06T23:14:33.133Z,13.58
2018-09-06T23:17:00.478Z,12.30
2018-09-06T23:19:27.775Z,13.15
2018-09-06T23:21:55.190Z,11.80
2018-09-06T23:24:22.530Z,11.28
2018-09-06T23:26:49.886Z,10.18
2018-09-06T23:29:17.211Z,8.83
2018-09-06T23:31:44.549Z,8.85
2018-09-06T23:34:11.862Z,8.65
2018-09-06T23:36:39.485Z,8.70
2018-09-06T23:39:06.831Z,8.80
2018-09-06T23:41:35.573Z,8.48
2018-09-06T23:44:03.596Z,7.08
2018-09-06T23:46:30.898Z,7.00
2018-09-06T23:48:59.103Z,7.83
2018-09-06T23:51:26.573Z,7.53
2018-09-06T23:53:54.051Z,8.40
2018-09-06T23:56:21.916Z,7.53
2018-09-06T23:58:49.320Z,7.33
